Time;durP1;ratioP1;P1;durP2;ratioP2;P2;SDS_P1;SDS_P2;PMS_P1;PMS_P2;Temp;Humidity;BMP_temperature;BMP_pressure;BME280_temperature;BME280_humidity;BME280_pressure;Samples;Min_cycle;Max_cycle;Signal;HPM_P1;HPM_P2
2021/07/12 05:30:51;;;;;;;88.90;82.53;;;;;;;20.65;93.70;100266.45;1746042;76;26124;-69
2021/07/12 05:33:20;;;;;;;85.53;79.32;;;;;;;20.78;94.15;100262.83;1770498;79;26355;-69
2021/07/12 05:35:47;;;;;;;30.70;27.62;;;;;;;20.85;93.75;100250.52;1776324;79;27010;-68
2021/07/12 05:38:13;;;;;;;25.82;21.70;;;;;;;21.01;93.75;100263.20;1779494;78;25859;-68
2021/07/12 05:40:40;;;;;;;29.63;20.92;;;;;;;21.13;93.63;100256.05;1782105;79;25833;-67
2021/07/12 05:43:08;;;;;;;26.42;23.32;;;;;;;21.22;93.60;100255.72;1779726;79;25994;-69
2021/07/12 05:45:35;;;;;;;25.55;22.27;;;;;;;21.35;93.83;100245.98;1781847;79;25838;-69
2021/07/12 05:48:02;;;;;;;29.25;23.20;;;;;;;21.48;93.14;100247.84;1778811;79;27367;-69
2021/07/12 05:50:29;;;;;;;27.22;22.67;;;;;;;21.63;94.17;100248.13;1762872;80;25861;-69
2021/07/12 05:52:55;;;;;;;29.07;23.65;;;;;;;21.76;93.96;100243.09;1723628;81;25822;-69
2021/07/12 05:55:21;;;;;;;29.85;23.12;;;;;;;21.94;94.90;100243.73;1734823;81;25885;-69
2021/07/12 05:57:48;;;;;;;28.05;22.70;;;;;;;22.13;95.22;100244.00;1733154;81;25818;-69
2021/07/12 06:00:16;;;;;;;87.80;81.17;;;;;;;22.24;93.76;100242.07;1776763;79;27319;-69
2021/07/12 06:02:43;;;;;;;90.53;83.45;;;;;;;22.32;93.30;100245.64;1781379;79;25901;-69
2021/07/12 06:05:11;;;;;;;87.75;81.28;;;;;;;22.42;93.25;100242.72;1778777;79;25464;-69
2021/07/12 06:07:39;;;;;;;86.42;80.40;;;;;;;22.46;92.24;100241.56;1783037;79;26170;-69
2021/07/12 06:10:07;;;;;;;86.60;80.38;;;;;;;22.55;92.16;100249.44;1784437;79;25857;-69
2021/07/12 06:12:36;;;;;;;86.02;79.87;;;;;;;22.60;91.80;100250.43;1785056;78;28116;-70
2021/07/12 06:15:05;;;;;;;86.47;80.12;;;;;;;22.65;91.47;100254.17;1776964;79;25840;-69
2021/07/12 06:17:31;;;;;;;;;;;;;;;22.73;92.42;100253.58;1721754;81;25904;-68
2021/07/12 06:19:57;;;;;;;77.70;71.87;;;;;;;22.86;92.91;100249.85;1725511;81;25986;-68
2021/07/12 06:22:24;;;;;;;24.20;21.80;;;;;;;23.03;93.56;100250.43;1711181;81;25836;-72
2021/07/12 06:24:50;;;;;;;23.70;21.37;;;;;;;23.16;93.54;100249.48;1723368;81;27313;-72
2021/07/12 06:27:17;;;;;;;24.50;21.90;;;;;;;23.31;93.61;100248.88;1735174;80;25990;-71
2021/07/12 06:29:44;;;;;;;24.27;21.12;;;;;;;23.48;94.32;100248.03;1729083;81;25812;-70
2021/07/12 06:32:10;;;;;;;28.40;23.62;;;;;;;23.61;93.10;100248.98;1701083;82;26009;-71
2021/07/12 06:34:36;;;;;;;24.57;20.75;;;;;;;23.68;92.46;100250.33;1728170;81;25456;-70
2021/07/12 06:37:04;;;;;;;25.00;21.40;;;;;;;23.79;92.61;100254.45;1723614;82;27314;-71
2021/07/12 06:39:30;;;;;;;24.75;22.07;;;;;;;23.86;92.71;100248.92;1668397;83;25945;-71
2021/07/12 06:41:56;;;;;;;24.47;21.87;;;;;;;23.96;92.19;100245.94;1740338;81;25899;-71
2021/07/12 06:44:23;;;;;;;23.42;20.68;;;;;;;24.01;92.41;100246.30;1748093;80;25949;-71
2021/07/12 06:46:49;;;;;;;27.62;22.10;;;;;;;24.08;92.52;100249.62;1748740;80;25898;-71
2021/07/12 06:49:16;;;;;;;26.07;22.75;;;;;;;24.13;92.53;100248.42;1743977;81;27382;-71
2021/07/12 06:51:42;;;;;;;23.60;21.07;;;;;;;24.18;92.24;100247.39;1744907;81;25617;-72
2021/07/12 06:54:09;;;;;;;23.55;21.15;;;;;;;24.21;91.44;100243.02;1743199;81;25808;-71
2021/07/12 06:56:35;;;;;;;24.85;20.70;;;;;;;24.31;92.08;100242.77;1746161;81;25788;-71
2021/07/12 06:59:03;;;;;;;23.42;20.92;;;;;;;24.35;90.97;100243.56;1688844;83;25811;-71
2021/07/12 07:01:30;;;;;;;26.25;23.60;;;;;;;24.42;90.63;100249.03;1698957;83;27350;-71
2021/07/12 07:03:56;;;;;;;23.62;21.12;;;;;;;24.52;91.47;100241.27;1667670;84;25868;-71
2021/07/12 07:06:22;;;;;;;85.38;79.25;;;;;;;24.69;91.58;100242.36;1743164;81;25807;-71
2021/07/12 07:08:49;;;;;;;85.40;79.27;;;;;;;24.83;92.08;100243.44;1745173;81;26524;-70
2021/07/12 07:11:16;;;;;;;89.07;82.67;;;;;;;24.98;92.42;100238.75;1742787;81;25872;-71
2021/07/12 07:13:42;;;;;;;86.40;80.45;;;;;;;25.09;91.83;100243.39;1743833;81;27474;-71
2021/07/12 07:16:08;;;;;;;84.67;79.00;;;;;;;25.20;92.23;100225.30;1776079;78;25815;-71
2021/07/12 07:18:35;;;;;;;86.57;80.75;;;;;;;25.29;91.34;100222.27;1779813;78;25800;-71
2021/07/12 07:21:02;;;;;;;85.90;80.00;;;;;;;25.48;91.93;100222.25;1735534;81;25930;-71
2021/07/12 07:23:29;;;;;;;84.15;78.50;;;;;;;25.64;91.71;100227.81;1751188;79;25809;-70
2021/07/12 07:25:56;;;;;;;89.10;83.37;;;;;;;25.71;90.67;100224.95;1725463;81;28208;-70
2021/07/12 07:28:22;;;;;;;84.40;78.60;;;;;;;25.87;90.72;100221.00;1729316;81;25841;-70
2021/07/12 07:30:50;;;;;;;87.62;81.28;;;;;;;26.04;91.32;100217.06;1780069;78;25821;-70
2021/07/12 07:33:16;;;;;;;87.67;80.87;;;;;;;26.21;91.48;100217.41;1777553;78;26600;-70
2021/07/12 07:35:43;;;;;;;86.67;80.47;;;;;;;26.27;89.72;100217.70;1786492;78;25841;-70
2021/07/12 07:38:09;;;;;;;84.95;79.12;;;;;;;26.37;87.74;100220.14;1777514;79;28090;-74
2021/07/12 07:40:36;;;;;;;82.30;76.65;;;;;;;26.45;88.13;100213.29;1774219;78;25896;-74
2021/07/12 07:43:03;;;;;;;83.45;77.60;;;;;;;26.56;87.54;100208.38;1783181;78;25857;-74
2021/07/12 07:45:32;;;;;;;80.92;75.62;;;;;;;26.65;86.16;100213.41;1781113;78;25945;-74
2021/07/12 07:47:59;;;;;;;83.10;77.62;;;;;;;26.77;86.07;100212.02;1779310;78;25799;-74
2021/07/12 07:50:25;;;;;;;84.62;79.15;;;;;;;26.91;85.43;100210.37;1782742;79;27407;-74
2021/07/12 07:52:52;;;;;;;81.00;75.70;;;;;;;27.08;85.94;100216.82;1774534;80;25807;-73
2021/07/12 07:55:20;;;;;;;81.45;76.35;;;;;;;27.27;85.20;100213.89;1771603;79;25572;-75
2021/07/12 07:57:47;;;;;;;79.60;74.07;;;;;;;27.46;85.11;100215.12;1769883;80;26583;-75
2021/07/12 08:00:18;;;;;;;82.67;77.27;;;;;;;27.67;84.75;100212.55;1775161;80;26270;-76
2021/07/12 08:02:45;;;;;;;81.35;75.83;;;;;;;27.88;83.39;100214.08;1738731;81;27370;-76
2021/07/12 08:05:12;;;;;;;81.57;76.10;;;;;;;28.06;82.50;100205.39;1768192;80;25832;-75
2021/07/12 08:07:39;;;;;;;20.85;18.25;;;;;;;28.29;81.89;100226.70;1771291;80;25803;-76
2021/07/12 08:10:10;;;;;;;47.17;43.63;;;;;;;28.49;81.06;100221.69;1749836;80;25972;-75
2021/07/12 08:12:37;;;;;;;20.20;16.23;;;;;;;28.64;78.52;100218.76;1729510;81;25883;-77
2021/07/12 08:15:06;;;;;;;17.35;15.80;;;;;;;28.75;77.10;100215.70;1726536;81;27573;-76
2021/07/12 08:17:33;;;;;;;17.65;15.95;;;;;;;28.87;76.70;100216.99;1781905;79;25789;-76
2021/07/12 08:19:59;;;;;;;16.45;14.03;;;;;;;28.99;76.38;100210.70;1782466;78;25796;-76
2021/07/12 08:22:26;;;;;;;77.62;72.12;;;;;;;29.21;74.86;100215.73;1781488;79;26503;-77
2021/07/12 08:24:52;;;;;;;75.32;70.62;;;;;;;29.33;74.75;100207.27;1746645;80;25824;-76
2021/07/12 08:27:19;;;;;;;77.53;72.40;;;;;;;29.52;74.30;100209.71;1781415;79;28179;-77
2021/07/12 08:29:45;;;;;;;17.32;15.50;;;;;;;29.79;74.34;100207.95;1783786;79;25743;-76
2021/07/12 08:32:12;;;;;;;17.10;15.18;;;;;;;30.01;74.02;100204.53;1776792;79;25841;-76
2021/07/12 08:34:42;;;;;;;15.88;14.28;;;;;;;30.25;72.68;100203.58;1725624;81;25846;-76
2021/07/12 08:37:12;;;;;;;17.55;15.15;;;;;;;30.34;71.34;100198.89;1729194;81;25825;-76
2021/07/12 08:39:38;;;;;;;16.77;14.68;;;;;;;30.53;69.94;100204.71;1717125;81;28334;-76
2021/07/12 08:42:05;;;;;;;72.67;68.12;;;;;;;30.71;70.22;100202.70;1730616;81;25436;-76
2021/07/12 08:44:32;;;;;;;13.83;12.28;;;;;;;30.94;68.45;100207.73;1700462;82;25876;-75
2021/07/12 08:46:58;;;;;;;14.95;13.50;;;;;;;31.09;67.50;100201.22;1707972;82;25962;-76
2021/07/12 08:49:26;;;;;;;14.60;13.20;;;;;;;31.24;67.60;100200.70;1737882;81;25847;-76
2021/07/12 08:51:52;;;;;;;72.75;68.00;;;;;;;31.46;67.12;100200.70;1737704;81;27981;-76
2021/07/12 08:54:21;;;;;;;72.67;67.70;;;;;;;31.65;66.27;100198.82;1725664;81;25785;-76
2021/07/12 08:56:47;;;;;;;73.52;69.12;;;;;;;31.90;65.13;100197.87;1714892;82;25808;-77
2021/07/12 08:59:36;;;;;;;13.58;12.18;;;;;;;32.15;63.93;100196.92;1777971;79;25984;-75
2021/07/12 09:02:10;;;;;;;13.98;11.93;;;;;;;32.33;62.56;100198.98;1773420;79;25770;-75
2021/07/12 09:04:41;;;;;;;12.47;11.28;;;;;;;32.55;61.64;100198.11;1772691;79;27378;-75
2021/07/12 09:07:11;;;;;;;12.88;11.57;;;;;;;32.69;60.65;100196.16;1774485;79;26570;-76
2021/07/12 09:09:39;;;;;;;14.75;12.18;;;;;;;32.85;59.91;100199.27;1781335;79;25492;-75
2021/07/12 09:12:16;;;;;;;13.30;11.80;;;;;;;32.98;58.94;100201.91;1783096;79;25965;-75
2021/07/12 09:15:15;;;;;;;13.68;11.12;;;;;;;33.08;59.11;100192.88;1783589;79;25818;-74
2021/07/12 09:17:48;;;;;;;13.10;11.30;;;;;;;33.35;58.18;100192.11;1729286;81;28054;-72
2021/07/12 09:20:33;;;;;;;11.15;10.15;;;;;;;33.61;57.62;100195.34;1752880;80;25793;-72
2021/07/12 09:23:20;;;;;;;11.90;10.65;;;;;;;33.83;56.27;100199.96;1757303;80;25761;-74
2021/07/12 09:26:04;;;;;;;13.38;10.03;;;;;;;33.84;53.59;100200.13;1719973;81;25920;-74
2021/07/12 09:28:44;;;;;;;13.15;10.80;;;;;;;33.69;52.99;100195.17;1723655;81;25538;-73
2021/07/12 09:31:26;;;;;;;13.60;11.63;;;;;;;33.72;53.67;100192.70;1771652;79;29571;-71
2021/07/12 09:33:52;;;;;;;12.18;10.08;;;;;;;33.99;53.31;100198.83;1731613;79;25806;-66
2021/07/12 09:36:19;;;;;;;11.22;10.05;;;;;;;34.05;51.96;100195.52;1785107;79;25858;-66
2021/07/12 09:38:45;;;;;;;13.78;9.90;;;;;;;34.09;51.39;100198.94;1784382;79;25911;-72
2021/07/12 09:41:31;;;;;;;9.10;8.30;;;;;;;34.26;51.71;100195.75;1756164;80;25891;-72
2021/07/12 09:44:04;;;;;;;10.23;9.23;;;;;;;34.36;50.22;100186.02;1783120;79;26858;-71
2021/07/12 09:46:31;;;;;;;11.30;9.78;;;;;;;34.47;49.33;100187.68;1785839;79;26046;-71
2021/07/12 09:49:14;;;;;;;52.20;49.15;;;;;;;34.59;49.31;100192.91;1782069;79;25832;-71
2021/07/12 09:51:42;;;;;;;12.85;9.33;;;;;;;34.77;48.14;100201.23;1778282;79;25918;-70
2021/07/12 09:54:26;;;;;;;64.63;60.60;;;;;;;34.90;47.25;100194.58;1717883;81;25910;-71
2021/07/12 09:56:55;;;;;;;65.15;61.10;;;;;;;34.89;48.11;100189.59;1772180;79;27365;-70
2021/07/12 09:59:23;;;;;;;63.90;60.20;;;;;;;35.14;47.56;100188.91;1780647;79;25774;-70
2021/07/12 10:01:56;;;;;;;64.67;60.78;;;;;;;35.18;45.91;100186.70;1779729;79;25819;-70
2021/07/12 10:04:25;;;;;;;63.95;59.98;;;;;;;35.14;45.48;100181.27;1719226;81;25904;-71
2021/07/12 10:06:53;;;;;;;;;;;;;;;35.20;45.62;100179.96;1758799;80;25448;-70
2021/07/12 10:09:22;;;;;;;63.92;60.05;;;;;;;35.35;44.59;100176.55;1721888;80;27497;-70
2021/07/12 10:11:55;;;;;;;65.00;60.92;;;;;;;35.41;45.13;100171.66;1733498;81;25826;-69
2021/07/12 10:14:24;;;;;;;64.65;60.95;;;;;;;35.52;44.76;100181.70;1708272;81;25966;-71
2021/07/12 10:16:52;;;;;;;61.37;58.02;;;;;;;35.53;45.20;100163.55;1726829;81;25880;-70
2021/07/12 10:19:19;;;;;;;60.78;57.38;;;;;;;35.79;43.90;100165.78;1707096;83;25733;-71
2021/07/12 10:21:52;;;;;;;60.48;56.98;;;;;;;35.80;43.03;100167.34;1779621;79;27221;-71
2021/07/12 10:24:26;;;;;;;61.95;58.55;;;;;;;35.83;44.15;100166.37;1771734;79;25867;-70
2021/07/12 10:26:59;;;;;;;60.58;57.03;;;;;;;36.10;44.01;100158.20;1782717;79;25770;-70
2021/07/12 10:29:34;;;;;;;62.45;58.85;;;;;;;36.34;42.71;100165.72;1785563;79;25914;-70
2021/07/12 10:32:16;;;;;;;62.13;58.38;;;;;;;36.19;41.81;100160.11;1784582;79;25862;-70
2021/07/12 10:34:53;;;;;;;60.58;57.10;;;;;;;36.02;41.63;100153.59;1752571;79;27380;-70
2021/07/12 10:37:41;;;;;;;59.33;55.98;;;;;;;36.11;41.96;100149.11;1802709;79;25465;-70
2021/07/12 10:40:20;;;;;;;61.25;57.75;;;;;;;36.36;41.67;100138.61;1776382;79;25822;-70
2021/07/12 10:42:51;;;;;;;59.60;55.55;;;;;;;36.69;40.97;100140.91;1724642;81;25839;-70
2021/07/12 10:45:49;;;;;;;59.63;56.05;;;;;;;36.79;39.66;100146.56;1655090;85;25985;-71
2021/07/12 10:48:16;;;;;;;;;;;;;;;36.90;38.43;100147.30;1652124;86;27335;-70
2021/07/12 10:50:48;;;;;;;57.48;54.25;;;;;;;37.08;38.83;100139.94;1687661;83;25946;-71
2021/07/12 10:53:26;;;;;;;57.78;54.38;;;;;;;37.26;38.05;100137.45;1687210;83;25721;-71
2021/07/12 10:56:11;;;;;;;60.55;56.98;;;;;;;37.14;37.16;100138.60;1705568;83;25930;-71
2021/07/12 10:58:40;;;;;;;58.08;54.88;;;;;;;37.14;37.33;100135.78;1688181;83;25887;-71
2021/07/12 11:01:11;;;;;;;58.48;55.12;;;;;;;37.35;37.64;100132.27;1696244;82;27941;-71
2021/07/12 11:03:50;;;;;;;58.15;54.95;;;;;;;37.61;36.42;100125.16;1690395;83;25974;-70
2021/07/12 11:06:21;;;;;;;58.73;55.25;;;;;;;37.55;36.42;100135.00;1695326;83;25895;-69
2021/07/12 11:08:52;;;;;;;59.27;56.02;;;;;;;37.42;35.73;100126.17;1693688;83;25916;-70
2021/07/12 11:11:26;;;;;;;57.45;54.35;;;;;;;37.19;35.40;100125.22;1683147;84;25891;-70
2021/07/12 11:14:02;;;;;;;59.45;56.10;;;;;;;36.97;34.88;100113.84;1685757;83;27000;-66
2021/07/12 11:16:42;;;;;;;55.38;51.90;;;;;;;36.82;34.71;100120.98;1628635;86;25955;-68
2021/07/12 11:19:31;;;;;;;15.43;7.47;;;;;;;36.73;33.81;100116.92;1638827;86;25875;-67
2021/07/12 11:22:24;;;;;;;11.53;8.13;;;;;;;36.44;35.33;100115.80;1695903;83;25956;-67
2021/07/12 11:25:05;;;;;;;8.20;7.47;;;;;;;36.36;35.81;100109.68;1732493;78;25951;-67
2021/07/12 11:27:41;;;;;;;8.43;7.37;;;;;;;35.88;36.05;100118.62;1762948;78;27495;-67
2021/07/12 11:30:31;;;;;;;15.28;8.43;;;;;;;35.53;36.30;100112.30;1778265;78;26072;-67
2021/07/12 11:32:58;;;;;;;9.68;7.17;;;;;;;35.27;37.08;100107.92;1777800;78;25705;-71
2021/07/12 11:35:25;;;;;;;8.50;7.40;;;;;;;35.39;38.40;100100.45;1773687;78;25981;-71
2021/07/12 11:37:51;;;;;;;8.53;7.58;;;;;;;35.86;38.96;100092.22;1728698;81;25839;-71
2021/07/12 11:40:17;;;;;;;9.83;8.40;;;;;;;36.21;37.51;100086.59;1701097;81;27318;-71
2021/07/12 11:42:44;;;;;;;60.05;56.80;;;;;;;36.44;36.65;100094.68;1718869;81;25799;-71
2021/07/12 11:45:17;;;;;;;60.98;57.33;;;;;;;36.53;35.52;100092.34;1778988;78;25416;-72
2021/07/12 11:47:53;;;;;;;57.27;54.20;;;;;;;36.43;35.52;100080.45;1780153;78;25936;-71
2021/07/12 11:50:25;;;;;;;59.83;56.13;;;;;;;36.50;35.39;100077.08;1782319;78;25866;-71
2021/07/12 11:52:55;;;;;;;57.67;54.67;;;;;;;36.74;35.92;100070.56;1773243;78;27316;-71
2021/07/12 11:55:27;;;;;;;60.10;56.83;;;;;;;36.96;35.02;100056.56;1781876;78;25847;-71
2021/07/12 11:58:00;;;;;;;56.28;53.10;;;;;;;37.12;34.02;100050.92;1780375;79;25917;-71
2021/07/12 12:00:39;;;;;;;59.70;56.13;;;;;;;37.12;32.89;100049.51;1779396;79;25873;-72
2021/07/12 12:03:11;;;;;;;;;;;;;;;36.96;32.63;100046.05;1782765;78;26377;-71
2021/07/12 12:05:42;;;;;;;58.73;55.12;;;;;;;36.87;32.45;100045.47;1779336;79;27367;-71
2021/07/12 12:08:14;;;;;;;58.60;55.33;;;;;;;36.81;32.06;100037.74;1784016;78;25846;-71
2021/07/12 12:10:41;;;;;;;57.23;54.08;;;;;;;36.64;31.99;100040.98;1786403;78;25808;-67
2021/07/12 12:13:17;;;;;;;58.35;55.10;;;;;;;36.44;31.22;100029.15;1773882;78;26004;-67
2021/07/12 12:15:47;;;;;;;59.53;56.02;;;;;;;36.18;31.53;100034.05;1785323;79;25858;-68
2021/07/12 12:18:20;;;;;;;57.30;53.98;;;;;;;36.37;32.21;100041.62;1785002;79;27299;-69
2021/07/12 12:20:54;;;;;;;58.30;55.08;;;;;;;36.62;32.18;100056.20;1781695;79;25858;-68
2021/07/12 12:23:30;;;;;;;58.95;55.75;;;;;;;36.68;30.27;100049.20;1781177;79;25763;-68
2021/07/12 12:26:10;;;;;;;59.23;55.65;;;;;;;36.57;30.86;100054.10;1781187;79;26020;-68
2021/07/12 12:28:48;;;;;;;6.87;6.17;;;;;;;36.51;30.77;100043.41;1783365;79;25813;-69
2021/07/12 12:31:27;;;;;;;7.37;6.67;;;;;;;36.60;29.90;100047.48;1783663;79;27328;-69
2021/07/12 12:34:01;;;;;;;57.88;54.53;;;;;;;36.38;30.59;100032.53;1781463;79;25446;-68
2021/07/12 12:36:41;;;;;;;60.88;57.40;;;;;;;36.39;30.39;100023.59;1759425;80;25711;-68
2021/07/12 12:39:15;;;;;;;58.98;55.43;;;;;;;36.50;29.80;100015.88;1733565;81;25978;-68
2021/07/12 12:41:51;;;;;;;59.83;56.53;;;;;;;36.38;30.11;100017.80;1762469;79;25818;-68
2021/07/12 12:44:25;;;;;;;57.90;54.60;;;;;;;36.23;29.63;100021.35;1765812;79;27311;-68
2021/07/12 12:46:58;;;;;;;58.55;55.17;;;;;;;36.21;30.82;100002.75;1775972;79;25897;-69
2021/07/12 12:49:35;;;;;;;58.90;55.70;;;;;;;36.50;30.77;100003.85;1784384;79;25918;-69
2021/07/12 12:52:12;;;;;;;57.73;54.53;;;;;;;36.58;30.96;100000.09;1771083;79;26602;-68
2021/07/12 12:54:46;;;;;;;57.35;54.27;;;;;;;36.82;30.75;99994.84;1781630;79;25769;-69
2021/07/12 12:57:13;;;;;;;57.83;54.53;;;;;;;36.77;30.57;99983.65;1784245;79;27306;-68
2021/07/12 12:59:46;;;;;;;59.50;56.30;;;;;;;36.91;30.34;99992.47;1779444;79;26477;-68
2021/07/12 13:02:19;;;;;;;57.78;54.33;;;;;;;36.89;30.64;99988.73;1777339;79;26207;-68
2021/07/12 13:04:57;;;;;;;57.65;54.50;;;;;;;37.00;30.27;99983.82;1721210;81;26231;-68
2021/07/12 13:07:27;;;;;;;57.60;54.38;;;;;;;36.86;30.06;99987.56;1723880;82;25843;-68
2021/07/12 13:10:13;;;;;;;58.38;54.80;;;;;;;36.70;30.78;99993.20;1692038;82;27769;-67
2021/07/12 13:12:53;;;;;;;57.95;54.75;;;;;;;36.72;30.46;99994.88;1750103;80;25875;-73
2021/07/12 13:15:24;;;;;;;57.60;54.05;;;;;;;36.68;30.70;99995.69;1717840;81;25983;-72
2021/07/12 13:17:59;;;;;;;59.10;55.85;;;;;;;36.44;30.70;99988.32;1734829;81;25825;-73
2021/07/12 13:20:27;;;;;;;59.30;55.75;;;;;;;36.08;30.61;99994.66;1776244;79;25415;-73
2021/07/12 13:23:01;;;;;;;54.73;50.83;;;;;;;35.64;31.12;99985.16;1778140;79;27433;-73
2021/07/12 13:25:38;;;;;;;8.48;6.87;;;;;;;35.21;31.36;99991.77;1774648;79;25788;-73
2021/07/12 13:28:11;;;;;;;7.53;6.70;;;;;;;34.82;31.62;100017.84;1765497;79;25870;-73
2021/07/12 13:30:47;;;;;;;8.20;7.40;;;;;;;34.18;32.08;99992.63;1777739;79;26312;-73
2021/07/12 13:33:18;;;;;;;11.03;7.22;;;;;;;33.94;32.81;99991.26;1776362;79;25794;-73
2021/07/12 13:35:46;;;;;;;10.53;7.30;;;;;;;33.95;33.58;99984.41;1774330;79;27756;-74
2021/07/12 13:38:16;;;;;;;13.80;7.33;;;;;;;34.23;34.14;99982.81;1752856;80;34102;-74
2021/07/12 13:40:43;;;;;;;59.45;55.95;;;;;;;34.53;33.77;99979.42;1756556;80;25803;-74
2021/07/12 13:43:10;;;;;;;60.05;56.63;;;;;;;34.79;33.90;99974.66;1749923;80;26501;-74
2021/07/12 13:45:38;;;;;;;59.98;56.37;;;;;;;35.01;33.17;99978.45;1725540;82;25803;-73
2021/07/12 13:48:05;;;;;;;58.85;55.60;;;;;;;35.14;32.34;99969.09;1772786;79;27505;-73
2021/07/12 13:50:32;;;;;;;63.35;59.05;;;;;;;34.98;31.28;99974.57;1783259;79;25369;-73
2021/07/12 13:53:02;;;;;;;59.75;56.35;;;;;;;34.66;31.50;99977.71;1779210;79;25921;-74
2021/07/12 13:55:30;;;;;;;60.35;56.95;;;;;;;34.18;31.41;99967.38;1784628;79;25879;-74
2021/07/12 13:57:58;;;;;;;;;;;;;;;33.82;31.70;99980.44;1794034;79;25527;-75
2021/07/12 14:00:29;;;;;;;61.83;58.33;;;;;;;33.67;31.96;99978.97;1754821;79;29270;-74
2021/07/12 14:02:57;;;;;;;63.15;59.27;;;;;;;33.45;32.47;99969.41;1786682;79;25811;-75
2021/07/12 14:05:24;;;;;;;65.78;61.77;;;;;;;33.35;32.80;99972.74;1775561;79;26684;-75
2021/07/12 14:07:52;;;;;;;63.23;59.45;;;;;;;33.36;33.47;99967.30;1787545;79;26533;-75
2021/07/12 14:10:21;;;;;;;64.53;59.85;;;;;;;33.41;33.60;99961.81;1786693;79;25852;-76
2021/07/12 14:12:51;;;;;;;64.03;60.12;;;;;;;33.50;33.90;99956.14;1787528;79;27970;-76
2021/07/12 14:15:22;;;;;;;63.15;58.98;;;;;;;33.61;33.58;99949.22;1786821;79;26422;-68
2021/07/12 14:17:49;;;;;;;63.15;59.45;;;;;;;33.68;33.47;99948.92;1775500;79;25424;-68
2021/07/12 14:20:16;;;;;;;63.78;59.88;;;;;;;33.72;34.04;99952.94;1779588;79;25751;-69
2021/07/12 14:22:43;;;;;;;62.80;58.95;;;;;;;33.78;33.46;99950.41;1777293;79;26460;-68
2021/07/12 14:25:11;;;;;;;64.75;61.05;;;;;;;33.80;33.86;99945.69;1776800;80;27896;-68
2021/07/12 14:27:39;;;;;;;64.27;60.50;;;;;;;33.82;33.70;99943.97;1749991;80;26187;-68
2021/07/12 14:30:08;;;;;;;23.50;21.68;;;;;;;33.92;33.85;99950.91;1779005;79;25854;-68
2021/07/12 14:32:34;;;;;;;9.15;8.25;;;;;;;33.92;33.17;99951.70;1777751;79;26556;-68
2021/07/12 14:35:01;;;;;;;14.63;8.85;;;;;;;33.68;33.63;99955.30;1784662;79;25784;-68
2021/07/12 14:37:27;;;;;;;65.12;61.28;;;;;;;33.44;33.66;99955.87;1756977;79;27952;-69
2021/07/12 14:39:53;;;;;;;63.33;59.60;;;;;;;33.17;33.72;99949.77;1789952;78;25777;-68
2021/07/12 14:42:20;;;;;;;62.95;59.25;;;;;;;33.07;33.91;99937.83;1776063;79;25845;-68
2021/07/12 14:44:46;;;;;;;64.42;60.52;;;;;;;33.06;34.25;99937.66;1785286;79;26536;-68
2021/07/12 14:47:13;;;;;;;64.62;60.65;;;;;;;33.11;34.33;99937.78;1791113;78;25862;-77
2021/07/12 14:49:39;;;;;;;11.55;9.00;;;;;;;33.20;34.82;99944.00;1755841;79;27291;-77
2021/07/12 14:52:08;;;;;;;13.72;8.98;;;;;;;33.36;35.51;99940.67;1775058;79;25777;-76
2021/07/12 14:54:35;;;;;;;21.85;19.67;;;;;;;33.44;34.94;99937.65;1752049;80;25857;-76
2021/07/12 14:57:03;;;;;;;11.93;8.93;;;;;;;33.48;34.62;99941.06;1781035;78;25839;-77
2021/07/12 14:59:29;;;;;;;11.55;9.18;;;;;;;33.39;34.79;99936.90;1780885;79;25915;-77
2021/07/12 15:01:57;;;;;;;13.50;9.63;;;;;;;33.33;35.17;99934.62;1770978;78;27364;-78
2021/07/12 15:04:23;;;;;;;13.60;8.88;;;;;;;33.21;35.26;99936.39;1779085;79;25783;-79
2021/07/12 15:06:50;;;;;;;10.85;8.35;;;;;;;33.05;35.38;99935.50;1765198;78;25953;-77
2021/07/12 15:09:16;;;;;;;12.43;8.75;;;;;;;32.86;35.60;99934.00;1783955;78;25886;-80
2021/07/12 15:11:43;;;;;;;10.85;8.58;;;;;;;32.64;35.96;99943.42;1779877;78;25796;-78
2021/07/12 15:14:09;;;;;;;10.20;8.05;;;;;;;32.43;35.59;99949.31;1781072;78;27296;-79
2021/07/12 15:16:36;;;;;;;10.20;8.15;;;;;;;32.17;35.90;99960.08;1788667;78;25818;-82
2021/07/12 15:19:05;;;;;;;10.08;8.38;;;;;;;31.97;36.57;99960.50;1786548;78;25436;-83
2021/07/12 15:21:33;;;;;;;9.63;8.63;;;;;;;31.78;37.09;99966.70;1780472;78;26464;-83
2021/07/12 15:23:59;;;;;;;63.48;59.67;;;;;;;31.62;37.78;99960.15;1779228;79;25940;-83
2021/07/12 15:26:26;;;;;;;65.65;61.85;;;;;;;31.44;38.20;99949.66;1779081;78;27296;-83
2021/07/12 15:28:53;;;;;;;65.32;61.42;;;;;;;31.41;38.92;99951.20;1763174;80;25848;-83
2021/07/12 15:31:19;;;;;;;65.52;61.42;;;;;;;31.47;39.27;99946.58;1729334;82;25645;-82
2021/07/12 15:33:46;;;;;;;8.93;8.15;;;;;;;31.58;39.39;99945.52;1747557;80;26428;-81
2021/07/12 15:36:12;;;;;;;9.15;8.23;;;;;;;31.64;39.30;99943.69;1761928;80;25660;-82
2021/07/12 15:38:39;;;;;;;9.70;8.40;;;;;;;31.73;39.38;99943.55;1757053;80;27340;-82
2021/07/12 15:41:06;;;;;;;8.95;7.83;;;;;;;31.74;39.67;99930.51;1758031;80;25767;-81
2021/07/12 15:43:32;;;;;;;11.22;8.58;;;;;;;31.88;40.19;99936.11;1751277;80;25854;-81
2021/07/12 15:45:59;;;;;;;64.75;60.85;;;;;;;32.01;40.19;99933.94;1754786;80;25837;-81
2021/07/12 15:48:25;;;;;;;64.12;60.50;;;;;;;32.10;39.84;99937.39;1755828;80;25849;-81
2021/07/12 15:50:52;;;;;;;65.10;60.73;;;;;;;32.22;40.09;99937.70;1733967;81;27999;-81
2021/07/12 15:53:18;;;;;;;63.78;59.88;;;;;;;32.33;40.12;99936.58;1710573;81;25901;-76
2021/07/12 15:55:45;;;;;;;65.55;61.75;;;;;;;32.45;40.43;99951.02;1723845;81;25764;-81
2021/07/12 15:58:11;;;;;;;63.78;60.08;;;;;;;32.47;40.31;99960.34;1727156;81;25967;-80
2021/07/12 16:00:38;;;;;;;65.65;61.65;;;;;;;32.30;40.42;99956.50;1749404;80;25843;-81
2021/07/12 16:03:05;;;;;;;63.48;59.53;;;;;;;32.22;40.63;99950.29;1777413;79;27924;-81
2021/07/12 16:05:33;;;;;;;66.33;62.53;;;;;;;32.07;40.47;99939.71;1786323;78;25859;-81
2021/07/12 16:08:02;;;;;;;67.58;63.52;;;;;;;31.97;40.73;99943.09;1781109;78;25877;-80
2021/07/12 16:10:28;;;;;;;12.33;9.23;;;;;;;31.79;40.79;99952.26;1778973;78;25918;-81
2021/07/12 16:12:55;;;;;;;11.57;8.80;;;;;;;31.55;41.24;99944.28;1775713;79;25885;-81
2021/07/12 16:15:23;;;;;;;68.12;64.10;;;;;;;31.30;42.10;99953.67;1784102;79;27287;-68
2021/07/12 16:17:50;;;;;;;66.25;62.23;;;;;;;31.06;42.55;99970.95;1776084;79;25884;-69
2021/07/12 16:20:17;;;;;;;67.00;62.90;;;;;;;30.80;43.17;99962.73;1781253;78;25798;-68
2021/07/12 16:22:43;;;;;;;66.47;62.38;;;;;;;30.54;43.24;99976.81;1783544;78;25907;-69
2021/07/12 16:25:11;;;;;;;67.25;63.00;;;;;;;30.21;43.61;99954.70;1773852;78;25864;-68
2021/07/12 16:27:38;;;;;;;67.53;63.25;;;;;;;29.89;44.41;99957.36;1774506;78;27314;-68
2021/07/12 16:30:07;;;;;;;67.90;63.85;;;;;;;29.55;45.69;99961.64;1753650;79;25532;-68
2021/07/12 16:32:35;;;;;;;72.78;68.45;;;;;;;29.14;46.64;99966.70;1788122;78;26446;-68
2021/07/12 16:35:03;;;;;;;70.97;66.33;;;;;;;28.74;47.71;99977.63;1773797;79;26552;-68
2021/07/12 16:37:31;;;;;;;66.67;62.60;;;;;;;28.41;49.60;99986.05;1784016;78;25559;-67
2021/07/12 16:39:58;;;;;;;71.70;67.08;;;;;;;28.10;50.63;99993.41;1771465;78;28012;-68
2021/07/12 16:42:25;;;;;;;71.80;67.37;;;;;;;27.73;51.32;99994.10;1753361;80;25831;-68
2021/07/12 16:44:53;;;;;;;69.92;65.67;;;;;;;27.44;51.89;100002.95;1730184;81;25157;-68
2021/07/12 16:47:24;;;;;;;70.95;66.70;;;;;;;27.14;51.98;100023.60;1752650;80;25948;-68
2021/07/12 16:49:51;;;;;;;69.03;64.62;;;;;;;26.91;52.57;100036.95;1760728;80;25784;-68
2021/07/12 16:52:18;;;;;;;69.75;65.50;;;;;;;26.62;52.85;100028.39;1760469;80;27313;-68
2021/07/12 16:54:45;;;;;;;70.12;65.87;;;;;;;26.30;52.49;100006.19;1755042;80;26627;-68
2021/07/12 16:57:12;;;;;;;69.05;64.70;;;;;;;26.05;52.65;99990.00;1729926;81;25855;-68